Time;durP1;ratioP1;P1;durP2;ratioP2;P2;SDS_P1;SDS_P2;PMS_P1;PMS_P2;Temp;Humidity;BMP_temperature;BMP_pressure;BME280_temperature;BME280_humidity;BME280_pressure;Samples;Min_cycle;Max_cycle;Signal;HPM_P1;HPM_P2
2022/09/22 00:02:01;;;;;;;21.30;10.15;;;9.70;99.90;;;;;;5067833;28;20047;-73
2022/09/22 00:04:27;;;;;;;20.58;9.77;;;9.70;99.90;;;;;;5066343;28;20162;-71
2022/09/22 00:06:54;;;;;;;17.98;8.68;;;9.70;99.90;;;;;;5069292;28;20032;-71
2022/09/22 00:09:20;;;;;;;20.80;8.52;;;9.70;99.90;;;;;;5057770;28;20470;-70
2022/09/22 00:11:49;;;;;;;22.05;8.98;;;9.60;99.90;;;;;;5054290;28;20036;-70
2022/09/22 00:14:21;;;;;;;17.48;9.45;;;9.60;99.90;;;;;;5060537;28;20024;-70
2022/09/22 00:16:55;;;;;;;21.05;8.68;;;9.60;99.90;;;;;;5068121;28;20054;-70
2022/09/22 00:19:24;;;;;;;19.00;9.85;;;9.60;99.90;;;;;;5057277;28;20036;-70
2022/09/22 00:21:49;;;;;;;23.73;10.73;;;9.60;99.90;;;;;;5054464;28;20037;-70
2022/09/22 00:24:16;;;;;;;18.67;8.68;;;9.60;99.90;;;;;;5054440;28;20013;-69
2022/09/22 00:26:42;;;;;;;21.10;9.98;;;9.60;99.90;;;;;;5053634;28;20041;-70
2022/09/22 00:29:09;;;;;;;18.67;8.90;;;9.60;99.90;;;;;;5053910;28;20029;-70
2022/09/22 00:31:37;;;;;;;19.65;9.35;;;9.70;99.90;;;;;;5054558;28;20036;-70
2022/09/22 00:34:03;;;;;;;20.52;9.05;;;9.60;99.90;;;;;;5054546;28;20035;-70
2022/09/22 00:36:30;;;;;;;20.63;9.05;;;9.60;99.90;;;;;;5054357;28;20469;-70
2022/09/22 00:38:57;;;;;;;19.33;9.30;;;9.60;99.90;;;;;;5054205;28;20028;-70
2022/09/22 00:41:29;;;;;;;19.65;9.38;;;9.60;99.90;;;;;;5054441;28;20231;-70
2022/09/22 00:44:16;;;;;;;20.63;9.35;;;9.60;99.90;;;;;;5053997;28;20033;-71
2022/09/22 00:46:46;;;;;;;16.30;8.38;;;9.60;99.90;;;;;;5054365;28;20060;-70
2022/09/22 00:49:13;;;;;;;18.05;7.55;;;9.50;99.90;;;;;;5054337;28;20104;-71
2022/09/22 00:51:42;;;;;;;19.73;8.10;;;9.50;99.90;;;;;;5054061;28;20078;-71
2022/09/22 00:54:13;;;;;;;18.70;7.50;;;9.40;99.90;;;;;;5048960;28;20032;-71
2022/09/22 00:56:50;;;;;;;18.15;8.02;;;9.40;99.90;;;;;;5053850;28;20102;-71
2022/09/22 00:59:20;;;;;;;16.98;8.02;;;9.40;99.90;;;;;;5054131;28;20040;-70
2022/09/22 01:01:45;;;;;;;17.92;7.32;;;9.30;99.90;;;;;;5054218;28;20071;-71
2022/09/22 01:04:11;;;;;;;18.00;7.70;;;9.30;99.90;;;;;;5052454;28;20029;-70
2022/09/22 01:06:39;;;;;;;16.10;6.63;;;9.30;99.90;;;;;;5054226;28;20025;-71
2022/09/22 01:09:05;;;;;;;18.83;7.55;;;9.30;99.90;;;;;;5053727;28;20032;-71
2022/09/22 01:11:32;;;;;;;16.73;7.32;;;9.20;99.90;;;;;;5053312;28;20044;-71
2022/09/22 01:14:07;;;;;;;17.33;8.10;;;9.20;99.90;;;;;;5053759;28;20075;-70
2022/09/22 01:17:03;;;;;;;19.08;7.63;;;9.20;99.90;;;;;;5053720;28;20093;-72
2022/09/22 01:19:42;;;;;;;15.85;7.03;;;9.20;99.90;;;;;;5052059;28;20466;-71
2022/09/22 01:22:10;;;;;;;18.60;7.15;;;9.30;99.90;;;;;;5053672;28;20036;-71
2022/09/22 01:25:00;;;;;;;20.02;6.93;;;9.30;99.90;;;;;;5053117;28;20520;-70
2022/09/22 01:27:45;;;;;;;15.02;7.32;;;9.30;99.90;;;;;;5053162;28;20064;-71
2022/09/22 01:30:28;;;;;;;15.98;7.00;;;9.30;99.90;;;;;;5052312;28;20092;-72
2022/09/22 01:33:15;;;;;;;16.75;6.47;;;9.20;99.90;;;;;;5053030;28;20435;-71
2022/09/22 01:35:44;;;;;;;17.73;7.45;;;9.20;99.90;;;;;;5053122;28;20025;-71
2022/09/22 01:38:45;;;;;;;16.75;7.15;;;9.20;99.90;;;;;;5053319;28;20466;-71
2022/09/22 01:41:32;;;;;;;12.77;6.00;;;9.20;99.90;;;;;;5053583;28;20025;-70
2022/09/22 01:44:03;;;;;;;15.95;6.50;;;9.20;99.90;;;;;;5052847;28;20425;-71
2022/09/22 01:46:36;;;;;;;14.88;6.60;;;9.20;99.90;;;;;;5052928;28;20037;-71
2022/09/22 01:49:06;;;;;;;16.55;6.60;;;9.20;99.90;;;;;;5053092;28;20021;-71
2022/09/22 01:51:49;;;;;;;17.77;6.88;;;9.20;99.90;;;;;;5053055;28;20446;-70
2022/09/22 01:54:51;;;;;;;16.75;5.88;;;9.20;99.90;;;;;;5031458;28;20487;-72
2022/09/22 01:57:47;;;;;;;14.93;6.30;;;9.10;99.90;;;;;;5031894;28;20550;-69
2022/09/22 02:00:14;;;;;;;13.75;6.35;;;9.10;99.90;;;;;;5032884;28;20029;-69
2022/09/22 02:02:54;;;;;;;15.38;6.30;;;9.10;99.90;;;;;;5032815;28;20442;-69
2022/09/22 02:05:35;;;;;;;15.25;6.47;;;9.00;99.90;;;;;;5032715;28;20037;-70
2022/09/22 02:08:08;;;;;;;17.08;7.20;;;9.00;99.90;;;;;;5032843;28;20039;-69
2022/09/22 02:10:39;;;;;;;15.77;5.85;;;9.00;99.90;;;;;;5048760;28;20552;-69
2022/09/22 02:13:05;;;;;;;13.77;6.15;;;9.00;99.90;;;;;;5052588;28;20075;-69
2022/09/22 02:18:25;;;;;;;16.50;7.05;;;9.00;99.90;;;;;;5052903;28;20028;-69
2022/09/22 02:20:51;;;;;;;15.55;6.35;;;9.00;99.90;;;;;;5052417;28;20082;-69
2022/09/22 02:23:17;;;;;;;15.32;6.68;;;9.00;99.90;;;;;;5052340;28;20043;-69
2022/09/22 02:25:44;;;;;;;16.60;7.50;;;9.00;99.90;;;;;;5052179;28;20120;-69
2022/09/22 02:28:13;;;;;;;12.55;5.72;;;8.90;99.90;;;;;;5032033;28;20091;-69
2022/09/22 02:30:40;;;;;;;13.15;6.80;;;8.90;99.90;;;;;;5047230;28;20466;-69
2022/09/22 02:33:07;;;;;;;16.25;6.22;;;8.90;99.90;;;;;;5052287;28;20028;-69
2022/09/22 02:35:36;;;;;;;11.43;5.78;;;8.90;99.90;;;;;;5052281;28;20115;-69
2022/09/22 02:38:07;;;;;;;16.88;5.75;;;8.80;99.90;;;;;;5052263;28;20112;-70
2022/09/22 02:40:47;;;;;;;12.00;6.20;;;8.80;99.90;;;;;;5050919;28;20025;-69
2022/09/22 02:43:16;;;;;;;15.38;6.15;;;8.80;99.90;;;;;;5051663;28;20029;-69
2022/09/22 02:45:51;;;;;;;15.60;6.47;;;8.80;99.90;;;;;;5052609;28;20037;-69
2022/09/22 02:48:21;;;;;;;14.27;5.97;;;8.80;99.90;;;;;;5072020;28;20028;-70
2022/09/22 02:50:47;;;;;;;14.27;6.43;;;8.70;99.90;;;;;;5072117;28;20071;-70
2022/09/22 02:53:15;;;;;;;13.38;6.07;;;8.70;99.90;;;;;;5072193;28;20477;-70
2022/09/22 02:55:41;;;;;;;16.92;6.18;;;8.70;99.90;;;;;;5060870;28;20437;-69
2022/09/22 02:58:07;;;;;;;14.70;6.40;;;8.70;99.90;;;;;;5052120;28;20533;-70
2022/09/22 03:00:33;;;;;;;12.35;5.70;;;8.60;99.90;;;;;;5051977;28;20025;-70
2022/09/22 03:02:59;;;;;;;16.55;6.45;;;8.60;99.90;;;;;;5051864;28;20033;-69
2022/09/22 03:05:25;;;;;;;15.95;5.82;;;8.60;99.90;;;;;;5050407;28;20045;-70
2022/09/22 03:07:50;;;;;;;14.18;6.20;;;8.60;99.90;;;;;;5050498;28;20182;-71
2022/09/22 03:10:16;;;;;;;18.45;5.65;;;8.60;99.90;;;;;;5050196;28;20045;-69
2022/09/22 03:12:42;;;;;;;13.88;6.32;;;8.60;99.90;;;;;;5051553;28;20107;-69
2022/09/22 03:15:12;;;;;;;15.07;6.55;;;8.50;99.90;;;;;;5052019;28;20351;-69
2022/09/22 03:17:40;;;;;;;13.65;5.60;;;8.50;99.90;;;;;;5051762;28;20029;-69
2022/09/22 03:20:08;;;;;;;14.63;5.35;;;8.50;99.90;;;;;;5051744;28;20021;-70
2022/09/22 03:22:33;;;;;;;11.98;5.28;;;8.50;99.90;;;;;;5051780;28;20025;-70
2022/09/22 03:24:59;;;;;;;16.92;5.72;;;8.50;99.90;;;;;;5051715;28;20103;-69
2022/09/22 03:27:26;;;;;;;13.68;5.88;;;8.50;99.90;;;;;;5051960;28;20094;-70
2022/09/22 03:29:51;;;;;;;12.45;5.40;;;8.50;99.90;;;;;;5051579;28;20463;-69
2022/09/22 03:32:17;;;;;;;12.68;5.03;;;8.50;99.90;;;;;;5051525;28;20052;-69
2022/09/22 03:34:43;;;;;;;13.35;5.85;;;8.50;99.90;;;;;;5050054;28;20087;-70
2022/09/22 03:37:08;;;;;;;13.70;5.38;;;8.50;99.90;;;;;;5051489;28;20036;-69
2022/09/22 03:39:34;;;;;;;12.60;5.57;;;8.50;99.90;;;;;;5049901;28;20033;-69
2022/09/22 03:41:59;;;;;;;14.02;5.35;;;8.50;99.90;;;;;;5051395;28;20037;-70
2022/09/22 03:44:25;;;;;;;11.35;5.00;;;8.50;99.90;;;;;;5051413;28;20070;-69
2022/09/22 03:46:51;;;;;;;14.57;5.93;;;8.50;99.90;;;;;;5051446;28;20055;-70
2022/09/22 03:49:17;;;;;;;12.48;5.60;;;8.40;99.90;;;;;;5051189;28;20482;-70
2022/09/22 03:51:42;;;;;;;11.73;5.97;;;8.40;99.90;;;;;;5051367;28;20417;-69
2022/09/22 03:54:08;;;;;;;12.00;5.85;;;8.40;99.90;;;;;;5052777;28;20029;-69
2022/09/22 03:56:34;;;;;;;11.35;5.10;;;8.40;99.90;;;;;;5049728;28;20032;-70
2022/09/22 03:58:59;;;;;;;13.50;5.55;;;8.40;99.90;;;;;;5055134;28;20111;-70
2022/09/22 04:01:25;;;;;;;12.27;5.13;;;8.40;99.90;;;;;;5055147;28;20056;-70
2022/09/22 04:03:51;;;;;;;14.15;5.45;;;8.40;99.90;;;;;;5055138;28;20071;-70
2022/09/22 04:06:16;;;;;;;18.05;6.18;;;8.40;99.90;;;;;;5053659;28;20044;-70
2022/09/22 04:08:42;;;;;;;11.85;5.72;;;8.40;99.90;;;;;;5053422;28;20471;-71
2022/09/22 04:11:08;;;;;;;13.80;5.57;;;8.40;99.90;;;;;;5054936;28;20356;-68
2022/09/22 04:13:34;;;;;;;15.30;5.70;;;8.40;99.90;;;;;;5055084;28;20023;-69
2022/09/22 04:16:00;;;;;;;14.65;5.88;;;8.50;99.90;;;;;;5054581;28;20021;-70
2022/09/22 04:18:27;;;;;;;17.23;6.22;;;8.50;99.90;;;;;;5055059;28;20037;-69
2022/09/22 04:20:57;;;;;;;14.15;5.70;;;8.40;99.90;;;;;;5054658;28;20021;-71
2022/09/22 04:23:24;;;;;;;14.98;5.97;;;8.40;99.90;;;;;;5054716;28;20057;-70
2022/09/22 04:25:49;;;;;;;14.43;6.10;;;8.40;99.90;;;;;;5054461;28;20044;-70
2022/09/22 04:28:15;;;;;;;13.98;5.35;;;8.40;99.90;;;;;;5052915;28;20057;-70
2022/09/22 04:30:42;;;;;;;15.63;6.55;;;8.40;99.90;;;;;;5054876;28;20047;-70
2022/09/22 04:33:08;;;;;;;11.75;5.90;;;8.40;99.90;;;;;;5054444;28;20028;-70
2022/09/22 04:35:34;;;;;;;17.17;6.43;;;8.30;99.90;;;;;;5053042;28;20032;-70
2022/09/22 04:37:59;;;;;;;14.02;6.65;;;8.40;99.90;;;;;;5054447;28;20033;-70
2022/09/22 04:40:25;;;;;;;17.38;5.90;;;8.30;99.90;;;;;;5054363;28;20363;-70
2022/09/22 04:42:51;;;;;;;13.32;5.93;;;8.30;99.90;;;;;;5053672;28;20036;-70
2022/09/22 04:45:17;;;;;;;15.10;6.50;;;8.30;99.90;;;;;;5054398;28;20032;-69
2022/09/22 04:47:47;;;;;;;15.13;5.85;;;8.30;99.90;;;;;;5053941;28;20436;-70
2022/09/22 04:50:13;;;;;;;14.88;5.82;;;8.30;99.90;;;;;;5054017;28;20037;-70
2022/09/22 04:52:38;;;;;;;12.55;5.32;;;8.30;99.90;;;;;;5054165;28;20029;-70
2022/09/22 04:55:04;;;;;;;11.73;6.03;;;8.30;99.90;;;;;;5054363;28;20029;-70
2022/09/22 04:57:30;;;;;;;18.58;6.15;;;8.30;99.90;;;;;;5048717;28;20112;-70
2022/09/22 04:59:56;;;;;;;14.88;6.38;;;8.30;99.90;;;;;;5054024;28;20108;-70
2022/09/22 05:02:21;;;;;;;14.30;6.00;;;8.20;99.90;;;;;;5053893;28;20354;-70
2022/09/22 05:04:47;;;;;;;12.07;5.68;;;8.30;99.90;;;;;;5053576;28;20025;-69
2022/09/22 05:07:13;;;;;;;14.15;6.22;;;8.20;99.90;;;;;;5054105;28;20029;-69
2022/09/22 05:09:39;;;;;;;15.93;6.78;;;8.20;99.90;;;;;;5053734;28;20048;-69
2022/09/22 05:12:05;;;;;;;12.55;5.82;;;8.20;99.90;;;;;;5053656;28;20029;-69
2022/09/22 05:14:32;;;;;;;18.85;6.55;;;8.20;99.90;;;;;;5049733;28;20056;-69
2022/09/22 05:16:57;;;;;;;15.38;6.45;;;8.20;99.90;;;;;;5053662;28;20048;-69
2022/09/22 05:19:23;;;;;;;19.58;7.35;;;8.20;99.90;;;;;;5053838;28;20455;-69
2022/09/22 05:21:49;;;;;;;15.57;6.88;;;8.20;99.90;;;;;;5053667;28;20049;-70
2022/09/22 05:24:14;;;;;;;15.30;6.07;;;8.20;99.90;;;;;;5052300;28;20112;-70
2022/09/22 05:26:40;;;;;;;18.85;6.32;;;8.20;99.90;;;;;;5053212;28;20048;-69
2022/09/22 05:29:05;;;;;;;15.98;6.47;;;8.10;99.90;;;;;;5048224;28;20032;-70
2022/09/22 05:31:31;;;;;;;16.67;7.32;;;8.20;99.90;;;;;;5053239;28;20029;-70
2022/09/22 05:33:57;;;;;;;16.83;6.53;;;8.20;99.90;;;;;;5051693;28;20074;-69
2022/09/22 05:36:23;;;;;;;16.52;7.10;;;8.20;99.90;;;;;;5051682;28;20029;-70
2022/09/22 05:38:48;;;;;;;22.55;9.70;;;8.20;99.90;;;;;;5053089;28;20021;-69
2022/09/22 05:41:14;;;;;;;16.77;6.60;;;8.20;99.90;;;;;;5052868;28;20151;-70
2022/09/22 05:43:40;;;;;;;21.10;7.07;;;8.20;99.90;;;;;;5053021;28;20098;-70
2022/09/22 05:46:05;;;;;;;14.13;6.35;;;8.20;99.90;;;;;;5047587;28;20037;-69
2022/09/22 05:48:31;;;;;;;19.08;7.15;;;8.30;99.90;;;;;;5053020;28;20116;-70
2022/09/22 05:50:56;;;;;;;15.40;6.82;;;8.30;99.90;;;;;;5053003;28;20029;-69
2022/09/22 05:53:22;;;;;;;15.50;6.78;;;8.30;99.90;;;;;;5053072;28;20104;-69
2022/09/22 05:55:47;;;;;;;14.75;6.25;;;8.30;99.90;;;;;;5053142;28;20047;-70
2022/09/22 05:58:13;;;;;;;15.55;6.70;;;8.30;99.90;;;;;;5052913;28;20029;-69
2022/09/22 06:00:40;;;;;;;21.23;7.35;;;8.40;99.90;;;;;;5047686;28;20082;-69
2022/09/22 06:03:06;;;;;;;14.38;6.80;;;8.40;99.90;;;;;;5052513;28;20104;-69
2022/09/22 06:05:32;;;;;;;15.90;6.82;;;8.50;99.90;;;;;;5052380;28;20034;-69
2022/09/22 06:08:01;;;;;;;14.73;6.97;;;8.50;99.90;;;;;;5043936;28;20112;-69
2022/09/22 06:10:27;;;;;;;20.80;7.95;;;8.60;99.90;;;;;;5052519;28;20079;-68
2022/09/22 06:13:04;;;;;;;19.38;7.60;;;8.60;99.90;;;;;;5051098;28;20056;-69
2022/09/22 06:15:32;;;;;;;18.05;7.55;;;8.70;99.90;;;;;;5052636;28;20191;-69
2022/09/22 06:17:58;;;;;;;17.77;7.60;;;8.70;99.90;;;;;;5051985;28;20032;-69
2022/09/22 06:20:24;;;;;;;18.00;8.00;;;8.80;99.90;;;;;;5052343;28;20032;-69
2022/09/22 06:22:50;;;;;;;24.02;10.05;;;8.90;99.90;;;;;;5047150;28;20049;-69
2022/09/22 06:25:16;;;;;;;19.80;9.55;;;8.90;99.90;;;;;;5051860;28;20120;-69
2022/09/22 06:27:42;;;;;;;26.40;11.48;;;9.00;99.90;;;;;;5052219;28;20119;-69
2022/09/22 06:30:10;;;;;;;28.75;11.52;;;9.10;99.90;;;;;;5052153;28;20021;-69
2022/09/22 06:32:38;;;;;;;26.23;12.88;;;9.10;99.90;;;;;;5051482;28;20427;-69
2022/09/22 06:35:06;;;;;;;30.02;14.65;;;9.30;99.90;;;;;;5052031;28;20093;-69
2022/09/22 06:37:32;;;;;;;33.33;16.13;;;9.40;99.90;;;;;;5047949;28;20033;-69
2022/09/22 06:39:58;;;;;;;30.30;16.25;;;9.50;99.90;;;;;;5052133;28;20061;-69
2022/09/22 06:42:23;;;;;;;32.17;15.45;;;9.60;99.90;;;;;;5052140;28;20086;-69
2022/09/22 06:44:49;;;;;;;32.28;16.65;;;9.70;99.90;;;;;;5052002;28;20021;-69
2022/09/22 06:47:14;;;;;;;32.17;16.88;;;9.90;99.90;;;;;;5048017;28;20029;-69
2022/09/22 06:49:41;;;;;;;33.83;16.13;;;10.00;99.90;;;;;;5051784;28;20136;-69
2022/09/22 06:52:12;;;;;;;30.50;15.43;;;10.10;99.90;;;;;;5051954;28;20021;-69
2022/09/22 06:54:39;;;;;;;29.52;16.13;;;10.30;99.90;;;;;;5051314;28;20375;-69
2022/09/22 06:57:05;;;;;;;28.75;15.35;;;10.40;99.90;;;;;;5051713;28;20017;-68
2022/09/22 06:59:32;;;;;;;32.03;16.48;;;10.60;99.90;;;;;;5051460;28;20021;-69
2022/09/22 07:01:57;;;;;;;29.77;16.17;;;10.70;99.90;;;;;;5050113;28;20068;-69
2022/09/22 07:04:24;;;;;;;30.08;16.10;;;10.90;99.90;;;;;;5058065;28;20061;-70
2022/09/22 07:06:49;;;;;;;34.45;17.15;;;11.00;99.90;;;;;;5057846;28;20447;-69
2022/09/22 07:09:15;;;;;;;29.15;16.27;;;11.10;99.90;;;;;;5054078;28;20032;-69
2022/09/22 07:11:41;;;;;;;28.73;15.63;;;11.30;99.90;;;;;;5049237;28;20033;-70
2022/09/22 07:14:07;;;;;;;26.25;15.80;;;11.50;99.90;;;;;;5048505;28;20155;-70
2022/09/22 07:16:33;;;;;;;27.23;14.80;;;11.60;99.90;;;;;;5051365;28;20032;-70
2022/09/22 07:18:59;;;;;;;28.27;15.48;;;11.70;99.90;;;;;;5051947;28;20467;-70
2022/09/22 07:21:31;;;;;;;24.15;14.68;;;11.90;99.90;;;;;;5051966;28;20040;-70
2022/09/22 07:23:58;;;;;;;26.17;14.27;;;12.10;99.90;;;;;;5051819;28;20031;-69
2022/09/22 07:26:31;;;;;;;24.58;13.57;;;12.30;99.90;;;;;;5047853;28;20045;-70
2022/09/22 07:28:59;;;;;;;21.42;13.60;;;12.50;99.90;;;;;;5043054;28;20075;-69
2022/09/22 07:31:26;;;;;;;23.60;13.27;;;12.70;99.90;;;;;;5055667;28;20031;-70
2022/09/22 07:33:53;;;;;;;22.80;12.05;;;12.90;99.90;;;;;;5053373;28;20033;-70
2022/09/22 07:36:24;;;;;;;22.15;12.95;;;13.20;99.90;;;;;;5054273;28;20056;-69
2022/09/22 07:38:53;;;;;;;21.30;12.20;;;13.50;99.90;;;;;;5055541;28;20063;-71
2022/09/22 07:41:21;;;;;;;21.92;11.82;;;13.90;99.90;;;;;;5054694;28;20053;-72
2022/09/22 07:43:52;;;;;;;19.73;11.27;;;14.30;99.90;;;;;;5055595;28;20032;-68
2022/09/22 07:46:18;;;;;;;22.75;10.88;;;14.90;99.90;;;;;;5054060;28;20390;-70
2022/09/22 07:48:46;;;;;;;18.23;9.65;;;15.50;99.90;;;;;;5055511;28;20033;-70
2022/09/22 07:51:12;;;;;;;14.48;9.02;;;16.30;99.90;;;;;;5054625;28;20033;-70
2022/09/22 07:53:39;;;;;;;14.80;8.60;;;17.20;99.90;;;;;;5055632;28;20040;-70
2022/09/22 07:56:11;;;;;;;16.33;8.98;;;18.10;99.90;;;;;;5054730;28;20104;-70
2022/09/22 07:58:40;;;;;;;;;;;19.00;99.90;;;;;;5054235;28;20029;-70
2022/09/22 08:01:09;;;;;;;14.68;7.68;;;20.00;99.90;;;;;;5055054;28;19905;-70
2022/09/22 08:03:36;;;;;;;12.02;7.53;;;20.90;99.90;;;;;;5055098;28;20055;-71
2022/09/22 08:06:08;;;;;;;12.70;7.78;;;21.80;99.90;;;;;;5054919;28;20041;-71
2022/09/22 08:08:35;;;;;;;14.65;7.07;;;22.60;97.90;;;;;;5055046;28;20048;-71
2022/09/22 08:11:06;;;;;;;13.27;7.18;;;23.50;95.90;;;;;;5054538;28;20049;-72
2022/09/22 08:13:33;;;;;;;10.82;6.22;;;24.30;93.80;;;;;;5055112;28;20435;-72
2022/09/22 08:16:00;;;;;;;11.70;6.45;;;24.90;91.30;;;;;;5053824;28;20052;-71
2022/09/22 08:18:26;;;;;;;12.15;6.43;;;25.40;87.50;;;;;;5051051;28;20451;-71
2022/09/22 08:20:52;;;;;;;10.68;5.63;;;25.90;86.00;;;;;;5046074;28;20055;-70
2022/09/22 08:23:18;;;;;;;13.63;5.78;;;26.10;80.20;;;;;;5054301;28;20056;-72
2022/09/22 08:25:43;;;;;;;12.25;6.28;;;25.90;79.70;;;;;;5053966;28;20056;-71
2022/09/22 08:28:09;;;;;;;10.23;5.70;;;25.90;80.40;;;;;;5054337;28;20426;-70
2022/09/22 08:30:35;;;;;;;10.80;5.57;;;26.10;79.40;;;;;;5054255;28;20025;-71
2022/09/22 08:33:01;;;;;;;8.88;5.68;;;26.30;78.50;;;;;;5054388;28;20111;-71
2022/09/22 08:35:26;;;;;;;13.10;5.88;;;26.40;78.00;;;;;;5053618;28;20040;-71
2022/09/22 08:37:52;;;;;;;13.75;5.80;;;26.70;78.10;;;;;;5053541;28;20083;-70
2022/09/22 08:40:24;;;;;;;14.60;6.28;;;27.10;77.60;;;;;;5053050;28;20029;-72
2022/09/22 08:42:54;;;;;;;9.30;5.20;;;27.50;76.40;;;;;;5048559;28;20394;-71
2022/09/22 08:45:32;;;;;;;13.13;7.15;;;27.90;75.00;;;;;;5053618;28;20390;-72
2022/09/22 08:53:50;;;;;;;12.20;6.15;;;28.50;71.80;;;;;;5053708;28;20060;-71
2022/09/22 08:56:31;;;;;;;12.75;6.03;;;28.70;73.20;;;;;;5052818;28;20390;-71
2022/09/22 08:59:10;;;;;;;10.18;5.05;;;29.20;71.10;;;;;;5053682;28;20033;-72
2022/09/22 09:01:51;;;;;;;8.30;4.80;;;29.50;70.80;;;;;;5041632;28;20025;-69
2022/09/22 09:04:22;;;;;;;8.47;4.60;;;29.50;69.50;;;;;;5038992;28;20091;-70
2022/09/22 09:07:21;;;;;;;12.55;4.65;;;29.50;69.20;;;;;;5053186;28;20044;-70
2022/09/22 09:10:08;;;;;;;11.93;4.90;;;29.50;68.20;;;;;;5066451;28;20053;-72
2022/09/22 09:13:11;;;;;;;7.00;4.07;;;29.70;69.30;;;;;;5051863;28;20061;-71
2022/09/22 09:15:51;;;;;;;7.57;3.92;;;29.90;67.40;;;;;;5053407;28;20072;-70
2022/09/22 09:18:41;;;;;;;7.97;4.47;;;30.00;66.30;;;;;;5038225;28;20029;-70
2022/09/22 09:21:12;;;;;;;23.27;5.75;;;29.80;67.70;;;;;;5051507;28;20041;-71
2022/09/22 09:23:46;;;;;;;7.72;4.10;;;30.00;67.30;;;;;;5051850;28;20024;-71
2022/09/22 09:26:14;;;;;;;9.27;4.70;;;30.40;65.30;;;;;;5050911;28;20037;-71
2022/09/22 09:28:49;;;;;;;12.52;4.32;;;30.70;65.70;;;;;;5051704;28;20152;-70
2022/09/22 09:31:47;;;;;;;14.82;4.78;;;31.10;65.10;;;;;;5052326;28;20096;-70
2022/09/22 09:34:16;;;;;;;8.68;3.97;;;31.60;62.80;;;;;;5051169;28;20099;-69
2022/09/22 09:36:47;;;;;;;7.97;3.45;;;31.60;62.20;;;;;;5050812;28;20025;-69
2022/09/22 09:39:38;;;;;;;13.23;4.13;;;31.50;62.80;;;;;;5053281;28;20075;-70
2022/09/22 09:42:25;;;;;;;10.57;4.05;;;31.50;61.00;;;;;;5048706;28;20029;-70
2022/09/22 09:44:53;;;;;;;10.13;4.00;;;31.30;61.90;;;;;;5050889;28;20390;-70
2022/09/22 09:47:37;;;;;;;11.50;3.90;;;31.10;61.00;;;;;;5052261;28;20033;-70
2022/09/22 09:50:03;;;;;;;8.20;3.67;;;30.80;61.30;;;;;;5045902;28;20382;-70
2022/09/22 09:52:30;;;;;;;9.57;3.55;;;30.80;61.50;;;;;;5051137;28;20025;-70
2022/09/22 09:54:59;;;;;;;10.50;3.53;;;31.10;61.20;;;;;;5051783;28;20497;-70
2022/09/22 09:57:26;;;;;;;11.55;4.03;;;31.10;59.90;;;;;;5051498;28;20021;-70
2022/09/22 10:00:30;;;;;;;11.15;4.60;;;30.70;61.30;;;;;;5051884;28;20028;-70
2022/09/22 10:03:14;;;;;;;7.32;3.53;;;30.60;62.20;;;;;;5055262;28;20106;-71
2022/09/22 10:05:39;;;;;;;11.10;3.50;;;30.70;61.70;;;;;;5053666;28;20029;-70
2022/09/22 10:08:16;;;;;;;9.93;4.72;;;30.70;61.70;;;;;;5052467;28;20044;-70
2022/09/22 10:10:44;;;;;;;9.18;3.30;;;30.70;60.50;;;;;;5056354;28;20072;-70
2022/09/22 10:13:09;;;;;;;10.57;3.50;;;31.00;60.70;;;;;;5060307;28;20506;-71
2022/09/22 10:15:37;;;;;;;10.02;3.40;;;31.40;59.80;;;;;;5059463;28;20178;-71
2022/09/22 10:18:23;;;;;;;7.75;3.17;;;31.70;59.90;;;;;;5057448;28;20423;-70
2022/09/22 10:21:21;;;;;;;8.75;2.80;;;32.10;58.60;;;;;;5057848;28;20028;-71
2022/09/22 10:23:56;;;;;;;7.15;3.20;;;32.20;58.10;;;;;;5056882;28;20024;-70
2022/09/22 10:26:25;;;;;;;8.45;3.10;;;32.20;58.40;;;;;;5060607;28;20525;-71
2022/09/22 10:29:08;;;;;;;7.97;3.47;;;31.70;57.60;;;;;;5057463;28;20035;-71
2022/09/22 10:31:36;;;;;;;10.40;3.53;;;31.00;58.90;;;;;;5055148;28;20021;-70
2022/09/22 10:34:03;;;;;;;6.22;2.90;;;30.80;59.70;;;;;;5059028;28;20029;-71
2022/09/22 10:36:29;;;;;;;7.72;3.20;;;30.60;59.50;;;;;;5057864;28;20599;-71
2022/09/22 10:38:55;;;;;;;8.77;2.90;;;30.50;58.60;;;;;;5051057;28;20029;-70
2022/09/22 10:41:26;;;;;;;11.35;3.05;;;30.30;59.10;;;;;;5054896;28;20119;-70
2022/09/22 10:43:55;;;;;;;8.93;3.20;;;30.30;58.40;;;;;;5060229;28;20071;-70
2022/09/22 10:46:41;;;;;;;7.57;3.00;;;30.10;58.40;;;;;;5060231;28;20047;-69
2022/09/22 10:49:30;;;;;;;5.78;3.20;;;29.60;60.00;;;;;;5058995;28;20067;-70
2022/09/22 10:52:01;;;;;;;6.18;3.00;;;29.50;60.70;;;;;;5046351;28;20052;-70
2022/09/22 10:54:40;;;;;;;6.22;3.08;;;29.80;60.10;;;;;;5051651;28;20028;-71
2022/09/22 10:57:30;;;;;;;8.20;3.78;;;29.90;62.10;;;;;;5042784;28;20482;-71
2022/09/22 11:00:15;;;;;;;9.95;3.33;;;30.40;61.20;;;;;;5029051;28;20123;-70
2022/09/22 11:03:17;;;;;;;7.13;3.25;;;31.10;58.60;;;;;;5048864;28;20029;-70
2022/09/22 11:12:15;;;;;;;7.68;2.60;;;31.40;58.60;;;;;;5058579;28;20517;-71
2022/09/22 11:15:18;;;;;;;8.70;2.75;;;31.00;57.60;;;;;;5047077;28;20028;-70
2022/09/22 11:18:05;;;;;;;7.18;3.05;;;31.20;57.70;;;;;;5054585;28;20088;-70
2022/09/22 11:20:42;;;;;;;10.30;3.53;;;31.30;58.30;;;;;;5060541;28;20016;-70
2022/09/22 11:23:08;;;;;;;8.00;2.75;;;31.40;58.00;;;;;;5050878;28;20559;-71
2022/09/22 11:25:56;;;;;;;8.30;2.70;;;31.40;56.70;;;;;;5050947;28;20044;-69
2022/09/22 11:28:35;;;;;;;5.30;2.00;;;31.60;56.80;;;;;;5051303;28;20070;-69
2022/09/22 11:31:01;;;;;;;5.28;2.40;;;31.90;56.20;;;;;;5043011;28;20215;-70
2022/09/22 11:33:34;;;;;;;6.53;2.67;;;32.20;57.50;;;;;;5050887;28;20033;-69
2022/09/22 11:36:30;;;;;;;6.20;2.60;;;32.00;55.30;;;;;;5050954;28;20391;-70
2022/09/22 11:39:19;;;;;;;8.13;2.83;;;31.30;55.60;;;;;;5035754;28;20511;-70
2022/09/22 11:42:23;;;;;;;6.72;2.80;;;30.90;56.70;;;;;;5051148;28;20024;-69
2022/09/22 11:45:09;;;;;;;4.57;2.50;;;31.10;57.50;;;;;;5050740;28;20025;-70
2022/09/22 11:47:35;;;;;;;9.05;2.63;;;31.40;56.50;;;;;;5029358;28;20052;-70
2022/09/22 11:50:23;;;;;;;8.07;2.70;;;31.30;56.20;;;;;;5049612;28;20426;-69
2022/09/22 11:53:22;;;;;;;4.75;2.20;;;31.40;57.20;;;;;;5047961;28;20526;-70
2022/09/22 11:56:07;;;;;;;6.20;2.50;;;31.50;56.10;;;;;;5043790;28;20041;-69
2022/09/22 11:58:39;;;;;;;4.38;2.10;;;31.60;56.00;;;;;;5048094;28;20035;-69
2022/09/22 12:01:09;;;;;;;4.65;2.08;;;31.70;55.50;;;;;;5049435;28;20421;-69
2022/09/22 12:04:00;;;;;;;8.68;2.55;;;31.60;56.00;;;;;;5047616;28;20113;-69
2022/09/22 12:06:32;;;;;;;5.68;2.35;;;31.30;55.80;;;;;;5044211;28;20103;-69
2022/09/22 12:09:03;;;;;;;6.32;2.70;;;31.20;57.10;;;;;;5042872;28;20588;-68
2022/09/22 12:11:34;;;;;;;7.68;2.95;;;30.80;56.60;;;;;;5045474;28;20548;-69
2022/09/22 12:14:02;;;;;;;6.10;2.38;;;30.60;57.80;;;;;;5046985;28;20025;-70
2022/09/22 12:16:44;;;;;;;6.63;2.28;;;30.70;58.00;;;;;;5054074;28;20045;-70
2022/09/22 12:19:23;;;;;;;5.75;3.33;;;31.00;56.00;;;;;;5054156;28;20489;-70
2022/09/22 12:21:53;;;;;;;8.98;3.40;;;30.40;56.70;;;;;;5053313;28;20025;-70
2022/09/22 12:24:19;;;;;;;8.65;3.42;;;30.30;58.50;;;;;;5053119;28;20052;-69
2022/09/22 12:26:47;;;;;;;9.20;3.28;;;30.60;58.60;;;;;;5053240;28;20462;-69
2022/09/22 12:29:13;;;;;;;4.43;2.33;;;30.90;57.00;;;;;;5054103;28;20028;-69
2022/09/22 12:31:40;;;;;;;5.80;3.10;;;31.10;57.60;;;;;;5053584;28;20351;-69
2022/09/22 12:34:22;;;;;;;7.70;3.40;;;30.20;57.70;;;;;;5057596;28;20032;-68
2022/09/22 12:36:52;;;;;;;10.07;4.05;;;29.40;59.20;;;;;;5050604;28;20041;-70
2022/09/22 12:39:22;;;;;;;5.05;3.40;;;29.40;58.90;;;;;;5043192;28;20091;-69
2022/09/22 12:41:57;;;;;;;5.72;3.35;;;29.40;59.50;;;;;;5054221;28;20029;-69
2022/09/22 12:44:47;;;;;;;6.82;3.22;;;29.00;58.30;;;;;;5053773;28;20025;-69
2022/09/22 12:47:32;;;;;;;7.65;3.88;;;28.40;59.50;;;;;;5053822;28;20126;-69
2022/09/22 12:50:00;;;;;;;9.00;3.75;;;28.00;60.50;;;;;;5050247;28;20128;-69
2022/09/22 12:52:41;;;;;;;7.93;4.53;;;27.80;60.50;;;;;;5048516;28;20040;-70
2022/09/22 12:55:28;;;;;;;7.63;4.03;;;27.30;62.30;;;;;;5052258;28;20021;-69
2022/09/22 12:58:01;;;;;;;12.18;4.38;;;26.80;62.30;;;;;;5042447;28;20113;-69
2022/09/22 13:00:39;;;;;;;8.15;3.50;;;26.30;64.10;;;;;;5054138;28;20036;-68
2022/09/22 13:03:24;;;;;;;10.32;4.40;;;26.10;63.50;;;;;;5053401;28;20049;-68
2022/09/22 13:06:18;;;;;;;6.82;3.92;;;25.70;65.60;;;;;;5054257;28;20025;-69
2022/09/22 13:08:43;;;;;;;7.40;3.67;;;25.60;65.60;;;;;;5032411;28;20471;-69
2022/09/22 13:11:09;;;;;;;10.00;5.03;;;25.60;65.20;;;;;;5051554;28;20194;-68
2022/09/22 13:13:36;;;;;;;8.07;3.60;;;25.40;65.90;;;;;;5044540;28;20048;-68
2022/09/22 13:16:12;;;;;;;8.70;4.40;;;25.30;65.30;;;;;;5048950;28;20466;-67
2022/09/22 13:18:40;;;;;;;6.15;3.72;;;25.00;65.30;;;;;;5040714;28;20025;-68
2022/09/22 13:21:11;;;;;;;9.35;3.45;;;24.70;66.00;;;;;;5052430;28;20035;-68